sensor_id;sensor_type;location;lat;lon;timestamp;temperature;humidity
77277;DHT22;66330;52.166;9.978;2024-03-29T00:01:05;8.50;99.90
77277;DHT22;66330;52.166;9.978;2024-03-29T00:03:30;8.60;99.90
77277;DHT22;66330;52.166;9.978;2024-03-29T00:05:56;8.40;99.90
77277;DHT22;66330;52.166;9.978;2024-03-29T00:08:21;8.40;99.90
77277;DHT22;66330;52.166;9.978;2024-03-29T00:10:47;8.30;99.90
77277;DHT22;66330;52.166;9.978;2024-03-29T00:13:13;8.30;99.90
77277;DHT22;66330;52.166;9.978;2024-03-29T00:15:39;8.20;99.90
77277;DHT22;66330;52.166;9.978;2024-03-29T00:18:05;8.20;99.90
77277;DHT22;66330;52.166;9.978;2024-03-29T00:20:31;8.20;99.90
77277;DHT22;66330;52.166;9.978;2024-03-29T00:22:57;8.20;99.90
77277;DHT22;66330;52.166;9.978;2024-03-29T00:25:22;8.20;99.90
77277;DHT22;66330;52.166;9.978;2024-03-29T00:27:48;8.20;99.90
77277;DHT22;66330;52.166;9.978;2024-03-29T00:30:14;8.20;99.90
77277;DHT22;66330;52.166;9.978;2024-03-29T00:32:39;8.20;99.90
77277;DHT22;66330;52.166;9.978;2024-03-29T00:35:05;8.70;99.90
77277;DHT22;66330;52.166;9.978;2024-03-29T00:37:31;8.10;99.90
77277;DHT22;66330;52.166;9.978;2024-03-29T00:39:57;8.20;99.90
77277;DHT22;66330;52.166;9.978;2024-03-29T00:42:24;8.20;99.90
77277;DHT22;66330;52.166;9.978;2024-03-29T00:44:50;8.20;99.90
77277;DHT22;66330;52.166;9.978;2024-03-29T00:47:15;8.10;99.90
77277;DHT22;66330;52.166;9.978;2024-03-29T00:49:41;8.10;99.90
77277;DHT22;66330;52.166;9.978;2024-03-29T00:52:07;8.40;99.90
77277;DHT22;66330;52.166;9.978;2024-03-29T00:54:32;8.10;99.90
77277;DHT22;66330;52.166;9.978;2024-03-29T00:56:58;8.10;99.90
77277;DHT22;66330;52.166;9.978;2024-03-29T00:59:24;7.40;99.90
77277;DHT22;66330;52.166;9.978;2024-03-29T01:01:50;8.10;99.90
77277;DHT22;66330;52.166;9.978;2024-03-29T01:04:15;8.60;99.90
77277;DHT22;66330;52.166;9.978;2024-03-29T01:06:41;8.10;99.90
77277;DHT22;66330;52.166;9.978;2024-03-29T01:09:07;8.00;99.90
77277;DHT22;66330;52.166;9.978;2024-03-29T01:11:37;8.00;99.90
77277;DHT22;66330;52.166;9.978;2024-03-29T01:14:02;7.80;99.90
77277;DHT22;66330;52.166;9.978;2024-03-29T01:16:28;8.10;99.90
77277;DHT22;66330;52.166;9.978;2024-03-29T01:18:54;8.00;99.90
77277;DHT22;66330;52.166;9.978;2024-03-29T01:21:20;7.70;99.90
77277;DHT22;66330;52.166;9.978;2024-03-29T01:23:46;7.90;99.90
77277;DHT22;66330;52.166;9.978;2024-03-29T01:26:11;8.20;99.90
77277;DHT22;66330;52.166;9.978;2024-03-29T01:28:38;8.30;99.90
77277;DHT22;66330;52.166;9.978;2024-03-29T01:31:04;8.10;99.90
77277;DHT22;66330;52.166;9.978;2024-03-29T01:33:31;7.90;99.90
77277;DHT22;66330;52.166;9.978;2024-03-29T01:36:06;8.00;99.90
77277;DHT22;66330;52.166;9.978;2024-03-29T01:38:31;8.00;99.90
77277;DHT22;66330;52.166;9.978;2024-03-29T01:40:57;8.00;99.90
77277;DHT22;66330;52.166;9.978;2024-03-29T01:43:23;8.00;99.90
77277;DHT22;66330;52.166;9.978;2024-03-29T01:45:51;7.90;99.90
77277;DHT22;66330;52.166;9.978;2024-03-29T01:48:19;8.00;99.90
77277;DHT22;66330;52.166;9.978;2024-03-29T01:50:46;7.80;99.90
77277;DHT22;66330;52.166;9.978;2024-03-29T01:53:13;7.80;99.90
77277;DHT22;66330;52.166;9.978;2024-03-29T01:55:40;7.80;99.90
77277;DHT22;66330;52.166;9.978;2024-03-29T01:58:08;7.70;99.90
77277;DHT22;66330;52.166;9.978;2024-03-29T02:00:36;9.40;99.90
77277;DHT22;66330;52.166;9.978;2024-03-29T02:03:04;7.70;99.90
77277;DHT22;66330;52.166;9.978;2024-03-29T02:05:35;7.70;99.90
77277;DHT22;66330;52.166;9.978;2024-03-29T02:08:03;8.20;99.90
77277;DHT22;66330;52.166;9.978;2024-03-29T02:10:29;7.60;99.90
77277;DHT22;66330;52.166;9.978;2024-03-29T02:12:55;7.60;99.90
77277;DHT22;66330;52.166;9.978;2024-03-29T02:15:20;7.70;99.90
77277;DHT22;66330;52.166;9.978;2024-03-29T02:17:46;8.20;99.90
77277;DHT22;66330;52.166;9.978;2024-03-29T02:20:11;7.60;99.90
77277;DHT22;66330;52.166;9.978;2024-03-29T02:22:40;7.60;99.90
77277;DHT22;66330;52.166;9.978;2024-03-29T02:25:09;7.60;99.90
77277;DHT22;66330;52.166;9.978;2024-03-29T02:27:35;7.60;99.90
77277;DHT22;66330;52.166;9.978;2024-03-29T02:30:02;7.60;99.90
77277;DHT22;66330;52.166;9.978;2024-03-29T02:32:28;7.60;99.90
77277;DHT22;66330;52.166;9.978;2024-03-29T02:34:54;7.60;99.90
77277;DHT22;66330;52.166;9.978;2024-03-29T02:37:19;7.60;99.90
77277;DHT22;66330;52.166;9.978;2024-03-29T02:39:45;7.60;99.90
77277;DHT22;66330;52.166;9.978;2024-03-29T02:42:10;7.60;99.90
77277;DHT22;66330;52.166;9.978;2024-03-29T02:44:36;7.50;99.90
77277;DHT22;66330;52.166;9.978;2024-03-29T02:47:01;7.50;99.90
77277;DHT22;66330;52.166;9.978;2024-03-29T02:49:27;7.60;99.90
77277;DHT22;66330;52.166;9.978;2024-03-29T02:51:53;7.60;99.90
77277;DHT22;66330;52.166;9.978;2024-03-29T02:54:19;7.60;99.90
77277;DHT22;66330;52.166;9.978;2024-03-29T02:56:45;7.70;99.90
77277;DHT22;66330;52.166;9.978;2024-03-29T02:59:10;7.60;99.90
77277;DHT22;66330;52.166;9.978;2024-03-29T03:01:36;8.20;99.90
77277;DHT22;66330;52.166;9.978;2024-03-29T03:04:02;7.70;99.90
77277;DHT22;66330;52.166;9.978;2024-03-29T03:06:28;7.70;99.90
77277;DHT22;66330;52.166;9.978;2024-03-29T03:08:53;7.70;99.90
77277;DHT22;66330;52.166;9.978;2024-03-29T03:11:38;7.70;99.90
77277;DHT22;66330;52.166;9.978;2024-03-29T03:14:03;7.70;99.90
77277;DHT22;66330;52.166;9.978;2024-03-29T03:16:29;7.80;99.90
77277;DHT22;66330;52.166;9.978;2024-03-29T03:18:55;7.80;99.90
77277;DHT22;66330;52.166;9.978;2024-03-29T03:21:20;7.80;99.90
77277;DHT22;66330;52.166;9.978;2024-03-29T03:23:46;7.80;99.90
77277;DHT22;66330;52.166;9.978;2024-03-29T03:26:11;8.20;99.90
77277;DHT22;66330;52.166;9.978;2024-03-29T03:28:37;7.80;99.90
77277;DHT22;66330;52.166;9.978;2024-03-29T03:31:03;7.90;99.90
77277;DHT22;66330;52.166;9.978;2024-03-29T03:33:28;8.10;99.90
77277;DHT22;66330;52.166;9.978;2024-03-29T03:35:54;7.90;99.90
77277;DHT22;66330;52.166;9.978;2024-03-29T03:38:19;8.60;99.90
77277;DHT22;66330;52.166;9.978;2024-03-29T03:40:45;8.40;99.90
77277;DHT22;66330;52.166;9.978;2024-03-29T03:43:12;8.00;99.90
77277;DHT22;66330;52.166;9.978;2024-03-29T03:45:38;8.10;99.90
77277;DHT22;66330;52.166;9.978;2024-03-29T03:48:05;8.70;99.90
77277;DHT22;66330;52.166;9.978;2024-03-29T03:50:32;8.10;99.90
77277;DHT22;66330;52.166;9.978;2024-03-29T03:52:57;8.00;99.90
77277;DHT22;66330;52.166;9.978;2024-03-29T03:55:24;8.20;99.90
77277;DHT22;66330;52.166;9.978;2024-03-29T03:57:49;8.20;99.90
77277;DHT22;66330;52.166;9.978;2024-03-29T04:00:15;8.20;99.90
77277;DHT22;66330;52.166;9.978;2024-03-29T04:02:41;8.60;99.90
77277;DHT22;66330;52.166;9.978;2024-03-29T04:05:07;8.20;99.90
77277;DHT22;66330;52.166;9.978;2024-03-29T04:07:33;8.30;99.90
77277;DHT22;66330;52.166;9.978;2024-03-29T04:09:58;8.30;99.90
77277;DHT22;66330;52.166;9.978;2024-03-29T04:12:24;8.20;99.90
77277;DHT22;66330;52.166;9.978;2024-03-29T04:14:49;8.30;99.90
77277;DHT22;66330;52.166;9.978;2024-03-29T04:17:15;8.30;99.90
77277;DHT22;66330;52.166;9.978;2024-03-29T04:19:40;8.30;99.90
77277;DHT22;66330;52.166;9.978;2024-03-29T04:22:06;9.80;99.90
77277;DHT22;66330;52.166;9.978;2024-03-29T04:24:32;8.30;99.90
77277;DHT22;66330;52.166;9.978;2024-03-29T04:26:57;8.30;99.90
77277;DHT22;66330;52.166;9.978;2024-03-29T04:29:23;8.50;99.90
77277;DHT22;66330;52.166;9.978;2024-03-29T04:31:49;8.30;99.90
77277;DHT22;66330;52.166;9.978;2024-03-29T04:34:14;8.50;99.90
77277;DHT22;66330;52.166;9.978;2024-03-29T04:36:40;8.40;99.90
77277;DHT22;66330;52.166;9.978;2024-03-29T04:39:06;8.40;99.90
77277;DHT22;66330;52.166;9.978;2024-03-29T04:41:32;8.40;99.90
77277;DHT22;66330;52.166;9.978;2024-03-29T04:44:00;8.60;99.90
77277;DHT22;66330;52.166;9.978;2024-03-29T04:46:29;9.10;99.90
77277;DHT22;66330;52.166;9.978;2024-03-29T04:48:55;8.50;99.90
77277;DHT22;66330;52.166;9.978;2024-03-29T04:51:20;8.50;99.90
77277;DHT22;66330;52.166;9.978;2024-03-29T04:53:46;8.70;99.90
77277;DHT22;66330;52.166;9.978;2024-03-29T04:56:11;8.60;99.90
77277;DHT22;66330;52.166;9.978;2024-03-29T04:58:37;8.60;99.90
77277;DHT22;66330;52.166;9.978;2024-03-29T05:01:03;8.60;99.90
77277;DHT22;66330;52.166;9.978;2024-03-29T05:03:28;8.60;99.90
77277;DHT22;66330;52.166;9.978;2024-03-29T05:05:54;8.70;99.90
77277;DHT22;66330;52.166;9.978;2024-03-29T05:08:20;8.70;99.90
77277;DHT22;66330;52.166;9.978;2024-03-29T05:10:51;8.70;99.90
77277;DHT22;66330;52.166;9.978;2024-03-29T05:13:17;8.90;99.90
77277;DHT22;66330;52.166;9.978;2024-03-29T05:15:45;11.10;99.90
77277;DHT22;66330;52.166;9.978;2024-03-29T05:18:11;8.80;99.90
77277;DHT22;66330;52.166;9.978;2024-03-29T05:20:36;8.90;99.90
77277;DHT22;66330;52.166;9.978;2024-03-29T05:23:02;8.90;99.90
77277;DHT22;66330;52.166;9.978;2024-03-29T05:25:28;8.90;99.90
77277;DHT22;66330;52.166;9.978;2024-03-29T05:27:53;8.90;99.90
77277;DHT22;66330;52.166;9.978;2024-03-29T05:30:19;9.00;99.90
77277;DHT22;66330;52.166;9.978;2024-03-29T05:32:45;9.20;99.90
77277;DHT22;66330;52.166;9.978;2024-03-29T05:35:11;9.20;99.90
77277;DHT22;66330;52.166;9.978;2024-03-29T05:37:36;8.90;99.90
77277;DHT22;66330;52.166;9.978;2024-03-29T05:40:03;8.80;99.90
77277;DHT22;66330;52.166;9.978;2024-03-29T05:42:32;8.70;99.90
77277;DHT22;66330;52.166;9.978;2024-03-29T05:45:28;8.60;99.90
77277;DHT22;66330;52.166;9.978;2024-03-29T05:47:54;8.50;99.90
77277;DHT22;66330;52.166;9.978;2024-03-29T05:50:20;8.40;99.90
77277;DHT22;66330;52.166;9.978;2024-03-29T05:52:46;8.30;99.90
77277;DHT22;66330;52.166;9.978;2024-03-29T05:55:12;8.20;99.90
77277;DHT22;66330;52.166;9.978;2024-03-29T05:57:37;8.20;99.90
77277;DHT22;66330;52.166;9.978;2024-03-29T06:00:07;8.00;99.90
77277;DHT22;66330;52.166;9.978;2024-03-29T06:02:33;8.10;99.90
77277;DHT22;66330;52.166;9.978;2024-03-29T06:04:59;8.20;99.90
77277;DHT22;66330;52.166;9.978;2024-03-29T06:07:25;8.00;99.90
77277;DHT22;66330;52.166;9.978;2024-03-29T06:09:50;8.60;99.90
77277;DHT22;66330;52.166;9.978;2024-03-29T06:12:16;7.90;99.90
77277;DHT22;66330;52.166;9.978;2024-03-29T06:14:41;7.90;99.90
77277;DHT22;66330;52.166;9.978;2024-03-29T06:17:25;7.80;99.90
77277;DHT22;66330;52.166;9.978;2024-03-29T06:19:55;7.80;99.90
77277;DHT22;66330;52.166;9.978;2024-03-29T06:22:22;7.80;99.90
77277;DHT22;66330;52.166;9.978;2024-03-29T06:24:49;7.80;99.90
77277;DHT22;66330;52.166;9.978;2024-03-29T06:27:20;7.70;99.90
77277;DHT22;66330;52.166;9.978;2024-03-29T06:29:48;5.90;99.90
77277;DHT22;66330;52.166;9.978;2024-03-29T06:32:14;8.10;99.90
77277;DHT22;66330;52.166;9.978;2024-03-29T06:34:40;7.80;99.90
77277;DHT22;66330;52.166;9.978;2024-03-29T06:37:05;7.80;99.90
77277;DHT22;66330;52.166;9.978;2024-03-29T06:39:33;7.70;99.90
77277;DHT22;66330;52.166;9.978;2024-03-29T06:41:59;7.60;99.90
77277;DHT22;66330;52.166;9.978;2024-03-29T06:44:24;7.70;99.90
77277;DHT22;66330;52.166;9.978;2024-03-29T06:46:50;8.30;99.90
77277;DHT22;66330;52.166;9.978;2024-03-29T06:49:16;7.80;99.90
77277;DHT22;66330;52.166;9.978;2024-03-29T06:51:42;7.70;99.90
77277;DHT22;66330;52.166;9.978;2024-03-29T06:54:08;7.70;99.90
77277;DHT22;66330;52.166;9.978;2024-03-29T06:56:34;7.20;99.90
77277;DHT22;66330;52.166;9.978;2024-03-29T06:59:00;7.70;99.90
77277;DHT22;66330;52.166;9.978;2024-03-29T07:01:26;7.70;99.90
77277;DHT22;66330;52.166;9.978;2024-03-29T07:03:51;7.60;99.90
77277;DHT22;66330;52.166;9.978;2024-03-29T07:06:17;7.80;99.90
77277;DHT22;66330;52.166;9.978;2024-03-29T07:08:42;7.80;99.90
77277;DHT22;66330;52.166;9.978;2024-03-29T07:11:08;7.80;99.90
77277;DHT22;66330;52.166;9.978;2024-03-29T07:13:34;7.90;99.90
77277;DHT22;66330;52.166;9.978;2024-03-29T07:16:00;8.40;99.90
77277;DHT22;66330;52.166;9.978;2024-03-29T07:18:26;7.90;99.90
77277;DHT22;66330;52.166;9.978;2024-03-29T07:20:52;8.20;99.90
77277;DHT22;66330;52.166;9.978;2024-03-29T07:23:18;8.00;99.90
77277;DHT22;66330;52.166;9.978;2024-03-29T07:25:58;8.10;99.90
77277;DHT22;66330;52.166;9.978;2024-03-29T07:28:25;7.90;99.90
77277;DHT22;66330;52.166;9.978;2024-03-29T07:30:51;8.10;99.90
77277;DHT22;66330;52.166;9.978;2024-03-29T07:33:18;7.60;99.90
77277;DHT22;66330;52.166;9.978;2024-03-29T07:35:47;8.20;99.90
77277;DHT22;66330;52.166;9.978;2024-03-29T07:38:13;8.70;99.90
77277;DHT22;66330;52.166;9.978;2024-03-29T07:40:41;8.20;99.90
77277;DHT22;66330;52.166;9.978;2024-03-29T07:43:06;7.70;99.90
77277;DHT22;66330;52.166;9.978;2024-03-29T07:45:32;8.30;99.90
77277;DHT22;66330;52.166;9.978;2024-03-29T07:47:57;8.40;99.90
77277;DHT22;66330;52.166;9.978;2024-03-29T07:50:23;8.30;99.90
77277;DHT22;66330;52.166;9.978;2024-03-29T07:52:50;8.40;99.90
77277;DHT22;66330;52.166;9.978;2024-03-29T07:55:16;8.40;99.90
77277;DHT22;66330;52.166;9.978;2024-03-29T07:57:42;8.50;99.90
77277;DHT22;66330;52.166;9.978;2024-03-29T08:00:08;8.50;99.90
77277;DHT22;66330;52.166;9.978;2024-03-29T08:02:36;8.50;99.90
77277;DHT22;66330;52.166;9.978;2024-03-29T08:05:03;9.20;99.90
77277;DHT22;66330;52.166;9.978;2024-03-29T08:07:32;8.60;99.90
77277;DHT22;66330;52.166;9.978;2024-03-29T08:09:58;8.70;99.90
77277;DHT22;66330;52.166;9.978;2024-03-29T08:12:23;8.80;99.90
77277;DHT22;66330;52.166;9.978;2024-03-29T08:14:49;8.90;99.90
77277;DHT22;66330;52.166;9.978;2024-03-29T08:17:14;9.00;99.90
77277;DHT22;66330;52.166;9.978;2024-03-29T08:19:40;9.10;99.90
77277;DHT22;66330;52.166;9.978;2024-03-29T08:22:07;9.20;99.90
77277;DHT22;66330;52.166;9.978;2024-03-29T08:24:36;9.20;99.90
77277;DHT22;66330;52.166;9.978;2024-03-29T08:27:02;9.30;99.90
77277;DHT22;66330;52.166;9.978;2024-03-29T08:29:28;9.40;99.90
77277;DHT22;66330;52.166;9.978;2024-03-29T08:31:54;9.40;99.90
77277;DHT22;66330;52.166;9.978;2024-03-29T08:34:19;9.50;99.90
77277;DHT22;66330;52.166;9.978;2024-03-29T08:36:45;9.50;99.90
77277;DHT22;66330;52.166;9.978;2024-03-29T08:39:10;9.60;99.90
77277;DHT22;66330;52.166;9.978;2024-03-29T08:41:37;9.60;99.90
77277;DHT22;66330;52.166;9.978;2024-03-29T08:44:02;9.70;99.90
77277;DHT22;66330;52.166;9.978;2024-03-29T08:46:28;9.80;99.90
77277;DHT22;66330;52.166;9.978;2024-03-29T08:48:54;9.80;99.90
77277;DHT22;66330;52.166;9.978;2024-03-29T08:51:20;9.80;99.90
77277;DHT22;66330;52.166;9.978;2024-03-29T08:53:46;9.90;99.90
77277;DHT22;66330;52.166;9.978;2024-03-29T08:56:12;10.00;99.90
77277;DHT22;66330;52.166;9.978;2024-03-29T08:58:38;10.10;99.90
77277;DHT22;66330;52.166;9.978;2024-03-29T09:01:04;10.10;99.90
77277;DHT22;66330;52.166;9.978;2024-03-29T09:03:30;10.60;99.90
77277;DHT22;66330;52.166;9.978;2024-03-29T09:05:56;10.20;99.90
77277;DHT22;66330;52.166;9.978;2024-03-29T09:08:21;10.30;99.90
77277;DHT22;66330;52.166;9.978;2024-03-29T09:10:47;10.30;99.90
77277;DHT22;66330;52.166;9.978;2024-03-29T09:13:13;10.40;99.90
77277;DHT22;66330;52.166;9.978;2024-03-29T09:15:38;10.80;99.90
77277;DHT22;66330;52.166;9.978;2024-03-29T09:18:04;10.40;99.90
77277;DHT22;66330;52.166;9.978;2024-03-29T09:20:43;10.50;99.90
77277;DHT22;66330;52.166;9.978;2024-03-29T09:23:10;10.60;99.90
77277;DHT22;66330;52.166;9.978;2024-03-29T09:25:40;10.50;99.90
77277;DHT22;66330;52.166;9.978;2024-03-29T09:28:05;10.50;99.90
77277;DHT22;66330;52.166;9.978;2024-03-29T09:30:32;11.10;99.90
77277;DHT22;66330;52.166;9.978;2024-03-29T09:32:57;10.60;99.90
77277;DHT22;66330;52.166;9.978;2024-03-29T09:35:23;10.70;99.90
77277;DHT22;66330;52.166;9.978;2024-03-29T09:37:50;10.80;99.90
77277;DHT22;66330;52.166;9.978;2024-03-29T09:40:15;10.80;99.90
77277;DHT22;66330;52.166;9.978;2024-03-29T09:42:43;10.90;99.90
77277;DHT22;66330;52.166;9.978;2024-03-29T09:45:10;11.00;99.90
77277;DHT22;66330;52.166;9.978;2024-03-29T09:47:37;11.10;99.90
77277;DHT22;66330;52.166;9.978;2024-03-29T09:50:03;11.20;99.90
77277;DHT22;66330;52.166;9.978;2024-03-29T09:52:31;11.50;99.90
77277;DHT22;66330;52.166;9.978;2024-03-29T09:54:58;11.80;99.90
77277;DHT22;66330;52.166;9.978;2024-03-29T09:57:25;11.40;99.90
77277;DHT22;66330;52.166;9.978;2024-03-29T09:59:55;11.50;99.90
77277;DHT22;66330;52.166;9.978;2024-03-29T10:02:21;11.50;99.90
77277;DHT22;66330;52.166;9.978;2024-03-29T10:04:50;11.60;99.90
77277;DHT22;66330;52.166;9.978;2024-03-29T10:07:17;11.70;99.90
77277;DHT22;66330;52.166;9.978;2024-03-29T10:09:43;11.80;99.90
77277;DHT22;66330;52.166;9.978;2024-03-29T10:12:10;12.30;99.90
77277;DHT22;66330;52.166;9.978;2024-03-29T10:14:49;12.40;99.90
77277;DHT22;66330;52.166;9.978;2024-03-29T10:17:19;12.10;99.90
77277;DHT22;66330;52.166;9.978;2024-03-29T10:19:45;12.20;99.90
77277;DHT22;66330;52.166;9.978;2024-03-29T10:22:12;12.30;99.90
77277;DHT22;66330;52.166;9.978;2024-03-29T10:24:38;12.40;99.90
77277;DHT22;66330;52.166;9.978;2024-03-29T10:27:04;12.50;99.90
77277;DHT22;66330;52.166;9.978;2024-03-29T10:29:30;12.60;99.90
77277;DHT22;66330;52.166;9.978;2024-03-29T10:31:56;12.70;99.90
77277;DHT22;66330;52.166;9.978;2024-03-29T10:34:22;12.60;99.90
77277;DHT22;66330;52.166;9.978;2024-03-29T10:36:50;12.80;99.90
77277;DHT22;66330;52.166;9.978;2024-03-29T10:39:18;12.90;99.90
77277;DHT22;66330;52.166;9.978;2024-03-29T10:41:46;12.90;99.90
77277;DHT22;66330;52.166;9.978;2024-03-29T10:44:13;12.90;99.90
77277;DHT22;66330;52.166;9.978;2024-03-29T10:46:40;13.00;99.90
77277;DHT22;66330;52.166;9.978;2024-03-29T10:49:08;13.10;99.90
77277;DHT22;66330;52.166;9.978;2024-03-29T10:51:41;13.20;99.90
77277;DHT22;66330;52.166;9.978;2024-03-29T10:54:11;13.40;99.90
77277;DHT22;66330;52.166;9.978;2024-03-29T10:56:38;13.70;99.90
77277;DHT22;66330;52.166;9.978;2024-03-29T10:59:15;13.90;99.90
77277;DHT22;66330;52.166;9.978;2024-03-29T11:01:45;14.00;99.90
77277;DHT22;66330;52.166;9.978;2024-03-29T11:04:22;14.40;99.90
77277;DHT22;66330;52.166;9.978;2024-03-29T11:06:51;13.90;99.90
77277;DHT22;66330;52.166;9.978;2024-03-29T11:09:19;13.90;99.90
77277;DHT22;66330;52.166;9.978;2024-03-29T11:11:50;14.00;99.90
77277;DHT22;66330;52.166;9.978;2024-03-29T11:14:20;13.90;99.90
77277;DHT22;66330;52.166;9.978;2024-03-29T11:16:49;13.90;99.90
77277;DHT22;66330;52.166;9.978;2024-03-29T11:19:17;13.90;99.90
77277;DHT22;66330;52.166;9.978;2024-03-29T11:21:43;14.00;99.90
77277;DHT22;66330;52.166;9.978;2024-03-29T11:24:16;14.00;99.90
77277;DHT22;66330;52.166;9.978;2024-03-29T11:26:45;14.00;99.90
77277;DHT22;66330;52.166;9.978;2024-03-29T11:29:19;14.10;99.90
77277;DHT22;66330;52.166;9.978;2024-03-29T11:31:45;14.10;99.90
77277;DHT22;66330;52.166;9.978;2024-03-29T11:34:12;14.10;99.90
77277;DHT22;66330;52.166;9.978;2024-03-29T11:36:39;14.30;99.90
77277;DHT22;66330;52.166;9.978;2024-03-29T11:39:05;14.10;99.90
77277;DHT22;66330;52.166;9.978;2024-03-29T11:41:30;14.20;99.90
77277;DHT22;66330;52.166;9.978;2024-03-29T11:43:58;14.10;99.90
77277;DHT22;66330;52.166;9.978;2024-03-29T11:46:24;14.60;99.90
77277;DHT22;66330;52.166;9.978;2024-03-29T11:48:50;14.70;99.90
77277;DHT22;66330;52.166;9.978;2024-03-29T11:51:22;14.80;99.90
77277;DHT22;66330;52.166;9.978;2024-03-29T11:53:49;14.80;99.90
77277;DHT22;66330;52.166;9.978;2024-03-29T11:56:18;14.80;99.90
77277;DHT22;66330;52.166;9.978;2024-03-29T11:58:45;14.90;99.90
77277;DHT22;66330;52.166;9.978;2024-03-29T12:01:11;15.10;99.90
77277;DHT22;66330;52.166;9.978;2024-03-29T12:03:40;15.20;99.90
77277;DHT22;66330;52.166;9.978;2024-03-29T12:06:06;15.40;99.90
77277;DHT22;66330;52.166;9.978;2024-03-29T12:08:34;15.40;99.90
77277;DHT22;66330;52.166;9.978;2024-03-29T12:11:01;15.50;99.90
77277;DHT22;66330;52.166;9.978;2024-03-29T12:13:27;15.40;99.90
77277;DHT22;66330;52.166;9.978;2024-03-29T12:15:54;15.40;99.90
77277;DHT22;66330;52.166;9.978;2024-03-29T12:18:21;15.50;99.90
77277;DHT22;66330;52.166;9.978;2024-03-29T12:20:48;15.40;99.90
77277;DHT22;66330;52.166;9.978;2024-03-29T12:23:19;15.50;99.90
77277;DHT22;66330;52.166;9.978;2024-03-29T12:25:45;15.40;99.90
77277;DHT22;66330;52.166;9.978;2024-03-29T12:28:12;15.70;99.90
77277;DHT22;66330;52.166;9.978;2024-03-29T12:30:44;15.70;99.90
77277;DHT22;66330;52.166;9.978;2024-03-29T12:33:15;15.70;99.90
77277;DHT22;66330;52.166;9.978;2024-03-29T12:35:42;15.70;99.90
77277;DHT22;66330;52.166;9.978;2024-03-29T12:38:12;15.60;99.90
77277;DHT22;66330;52.166;9.978;2024-03-29T12:40:42;15.60;99.90
77277;DHT22;66330;52.166;9.978;2024-03-29T12:43:10;16.20;99.90
77277;DHT22;66330;52.166;9.978;2024-03-29T12:45:37;15.70;99.90
77277;DHT22;66330;52.166;9.978;2024-03-29T12:48:12;15.80;99.90
77277;DHT22;66330;52.166;9.978;2024-03-29T12:50:44;16.00;99.90
77277;DHT22;66330;52.166;9.978;2024-03-29T12:53:11;16.20;99.90
77277;DHT22;66330;52.166;9.978;2024-03-29T12:55:42;16.40;99.90
77277;DHT22;66330;52.166;9.978;2024-03-29T12:58:14;16.60;99.90
77277;DHT22;66330;52.166;9.978;2024-03-29T13:00:41;16.70;99.90
77277;DHT22;66330;52.166;9.978;2024-03-29T13:03:07;16.80;99.90
77277;DHT22;66330;52.166;9.978;2024-03-29T13:05:35;16.90;99.90
77277;DHT22;66330;52.166;9.978;2024-03-29T13:08:05;17.10;99.90
77277;DHT22;66330;52.166;9.978;2024-03-29T13:10:32;17.10;99.90
77277;DHT22;66330;52.166;9.978;2024-03-29T13:12:57;17.10;99.90
77277;DHT22;66330;52.166;9.978;2024-03-29T13:15:27;17.20;99.90
77277;DHT22;66330;52.166;9.978;2024-03-29T13:17:55;17.20;99.90
77277;DHT22;66330;52.166;9.978;2024-03-29T13:20:22;17.00;99.90
77277;DHT22;66330;52.166;9.978;2024-03-29T13:22:50;17.10;99.90
77277;DHT22;66330;52.166;9.978;2024-03-29T13:25:16;17.10;99.90
77277;DHT22;66330;52.166;9.978;2024-03-29T13:27:44;17.00;99.90
77277;DHT22;66330;52.166;9.978;2024-03-29T13:30:11;17.00;99.90
77277;DHT22;66330;52.166;9.978;2024-03-29T13:32:38;17.00;99.90
77277;DHT22;66330;52.166;9.978;2024-03-29T13:35:05;17.10;99.90
77277;DHT22;66330;52.166;9.978;2024-03-29T13:37:32;17.10;99.90
77277;DHT22;66330;52.166;9.978;2024-03-29T13:39:58;17.10;99.90
77277;DHT22;66330;52.166;9.978;2024-03-29T13:42:23;17.10;99.90
77277;DHT22;66330;52.166;9.978;2024-03-29T13:44:52;17.10;99.90
77277;DHT22;66330;52.166;9.978;2024-03-29T13:47:19;16.80;99.90
77277;DHT22;66330;52.166;9.978;2024-03-29T13:49:46;16.60;99.90
77277;DHT22;66330;52.166;9.978;2024-03-29T13:52:14;16.50;99.90
77277;DHT22;66330;52.166;9.978;2024-03-29T13:54:44;16.40;99.90
77277;DHT22;66330;52.166;9.978;2024-03-29T13:57:11;16.40;99.90
77277;DHT22;66330;52.166;9.978;2024-03-29T13:59:37;16.50;99.90
77277;DHT22;66330;52.166;9.978;2024-03-29T14:02:03;16.70;99.90
77277;DHT22;66330;52.166;9.978;2024-03-29T14:04:28;16.90;99.90
77277;DHT22;66330;52.166;9.978;2024-03-29T14:06:54;17.00;99.90
77277;DHT22;66330;52.166;9.978;2024-03-29T14:09:21;17.10;99.90
77277;DHT22;66330;52.166;9.978;2024-03-29T14:11:46;17.10;99.90
77277;DHT22;66330;52.166;9.978;2024-03-29T14:14:12;17.10;99.90
77277;DHT22;66330;52.166;9.978;2024-03-29T14:16:38;16.90;99.90
77277;DHT22;66330;52.166;9.978;2024-03-29T14:19:04;16.90;99.90
77277;DHT22;66330;52.166;9.978;2024-03-29T14:21:30;16.80;99.90
77277;DHT22;66330;52.166;9.978;2024-03-29T14:23:57;16.70;99.90
77277;DHT22;66330;52.166;9.978;2024-03-29T14:26:23;16.60;99.90
77277;DHT22;66330;52.166;9.978;2024-03-29T14:28:48;16.60;99.90
77277;DHT22;66330;52.166;9.978;2024-03-29T14:31:14;16.40;99.90
77277;DHT22;66330;52.166;9.978;2024-03-29T14:33:40;16.60;99.90
77277;DHT22;66330;52.166;9.978;2024-03-29T14:36:06;16.50;99.90
77277;DHT22;66330;52.166;9.978;2024-03-29T14:38:31;16.50;99.90
77277;DHT22;66330;52.166;9.978;2024-03-29T14:40:57;16.40;99.90
77277;DHT22;66330;52.166;9.978;2024-03-29T14:43:23;16.30;99.90
77277;DHT22;66330;52.166;9.978;2024-03-29T14:45:49;16.30;99.90
77277;DHT22;66330;52.166;9.978;2024-03-29T14:48:17;16.30;99.90
77277;DHT22;66330;52.166;9.978;2024-03-29T14:50:43;16.30;99.90
77277;DHT22;66330;52.166;9.978;2024-03-29T14:53:09;16.20;99.90
77277;DHT22;66330;52.166;9.978;2024-03-29T14:55:34;16.20;99.90
77277;DHT22;66330;52.166;9.978;2024-03-29T14:58:07;16.30;99.90
77277;DHT22;66330;52.166;9.978;2024-03-29T15:00:32;16.30;99.90
77277;DHT22;66330;52.166;9.978;2024-03-29T15:02:58;16.20;99.90
77277;DHT22;66330;52.166;9.978;2024-03-29T15:05:24;16.40;99.90
77277;DHT22;66330;52.166;9.978;2024-03-29T15:07:51;16.50;99.90
77277;DHT22;66330;52.166;9.978;2024-03-29T15:10:17;16.50;99.90
77277;DHT22;66330;52.166;9.978;2024-03-29T15:12:44;16.60;99.90
77277;DHT22;66330;52.166;9.978;2024-03-29T15:15:12;16.70;99.90
77277;DHT22;66330;52.166;9.978;2024-03-29T15:17:37;14.80;99.90
77277;DHT22;66330;52.166;9.978;2024-03-29T15:20:04;16.60;99.90
77277;DHT22;66330;52.166;9.978;2024-03-29T15:22:31;16.70;99.90
77277;DHT22;66330;52.166;9.978;2024-03-29T15:24:57;16.30;99.90
77277;DHT22;66330;52.166;9.978;2024-03-29T15:27:22;16.70;99.90
77277;DHT22;66330;52.166;9.978;2024-03-29T15:30:07;16.60;99.90
77277;DHT22;66330;52.166;9.978;2024-03-29T15:32:33;16.60;99.90
77277;DHT22;66330;52.166;9.978;2024-03-29T15:35:00;16.50;99.90
77277;DHT22;66330;52.166;9.978;2024-03-29T15:37:25;16.40;99.90